Time;durP1;ratioP1;P1;durP2;ratioP2;P2;SDS_P1;SDS_P2;PMS_P1;PMS_P2;Temp;Humidity;BMP_temperature;BMP_pressure;BME280_temperature;BME280_humidity;BME280_pressure;Samples;Min_cycle;Max_cycle;Signal;HPM_P1;HPM_P2
2023/07/23 00:00:54;;;;;;;3.40;3.07;;;20.30;56.40;;;19.95;49.81;97691.91;5129725;27;20469;-77
2023/07/23 00:03:22;;;;;;;4.83;3.70;;;20.20;56.00;;;20.16;50.27;97694.50;5105293;27;20440;-77
2023/07/23 00:05:51;;;;;;;4.33;3.57;;;20.20;56.70;;;20.23;49.83;97693.06;5125253;27;20445;-78
2023/07/23 00:08:19;;;;;;;4.70;3.43;;;20.20;56.50;;;20.04;50.22;97668.25;5132655;27;20447;-76
2023/07/23 00:10:46;;;;;;;3.43;3.13;;;20.10;56.70;;;20.24;49.90;97682.91;5134285;27;20517;-76
2023/07/23 00:13:13;;;;;;;4.53;4.00;;;20.20;56.50;;;20.27;49.78;97687.00;5128865;27;20527;-77
2023/07/23 00:15:41;;;;;;;3.87;3.47;;;20.30;56.40;;;20.63;49.23;97695.72;5139512;27;20452;-75
2023/07/23 00:18:09;;;;;;;4.10;3.70;;;20.50;56.40;;;20.56;49.26;97689.78;5126411;27;20464;-80
2023/07/23 00:20:36;;;;;;;4.30;3.93;;;20.50;56.20;;;20.33;48.79;97683.91;5135182;27;20456;-75
2023/07/23 00:23:04;;;;;;;5.07;3.30;;;20.50;55.80;;;20.16;49.07;97647.88;5136890;27;20447;-80
2023/07/23 00:25:32;;;;;;;4.13;3.63;;;20.50;56.10;;;20.31;48.96;97672.44;5125669;27;20457;-77
2023/07/23 00:27:59;;;;;;;3.30;3.00;;;20.40;55.90;;;20.28;49.38;97631.88;5135717;27;20459;-77
2023/07/23 00:30:26;;;;;;;3.90;3.50;;;20.50;56.30;;;20.58;48.66;97681.22;5135712;27;20455;-77
2023/07/23 00:32:53;;;;;;;3.53;3.23;;;20.50;56.10;;;20.74;48.41;97676.41;5098198;27;20453;-75
2023/07/23 00:35:23;;;;;;;4.60;3.87;;;20.60;56.10;;;20.59;48.24;97669.97;5112103;27;20527;-75
2023/07/23 00:37:50;;;;;;;4.23;3.60;;;20.70;55.70;;;20.28;48.46;97633.78;5124491;27;20788;-77
2023/07/23 00:40:17;;;;;;;4.20;3.80;;;20.60;55.80;;;20.50;48.68;97683.50;5127810;27;21078;-77
2023/07/23 00:42:45;;;;;;;3.23;2.93;;;20.60;55.90;;;20.51;49.17;97671.44;5137357;27;20474;-78
2023/07/23 00:45:12;;;;;;;3.60;3.30;;;20.50;56.10;;;20.63;48.81;97673.78;5133555;27;20459;-76
2023/07/23 00:47:41;;;;;;;3.00;2.80;;;20.60;56.10;;;20.93;48.07;97671.84;5128572;27;20464;-78
2023/07/23 00:50:09;;;;;;;3.40;3.10;;;20.90;56.10;;;20.79;48.04;97665.38;5120611;27;20445;-77
2023/07/23 00:52:38;;;;;;;3.70;3.33;;;20.80;55.90;;;20.68;48.28;97667.41;5147303;27;20453;-77
2023/07/23 00:55:07;;;;;;;5.13;3.40;;;20.80;55.80;;;20.67;48.48;97668.53;5130358;27;20450;-77
2023/07/23 00:57:35;;;;;;;4.43;4.03;;;20.70;55.90;;;20.66;48.60;97651.22;5128960;27;21071;-79
2023/07/23 01:00:05;;;;;;;4.63;3.03;;;20.70;56.10;;;21.03;47.89;97664.59;5137282;27;20948;-79
2023/07/23 01:02:33;;;;;;;3.37;3.07;;;20.90;55.90;;;20.94;48.32;97665.22;5108251;28;20571;-78
2023/07/23 01:05:01;;;;;;;3.40;3.10;;;20.80;55.90;;;20.99;47.87;97655.28;5141659;27;20452;-79
2023/07/23 01:07:32;;;;;;;3.60;2.93;;;21.00;55.70;;;21.02;47.79;97657.47;5138583;27;20447;-81
2023/07/23 01:10:03;;;;;;;3.43;3.13;;;21.00;55.60;;;20.87;47.73;97675.75;5139902;27;20445;-80
2023/07/23 01:12:31;;;;;;;2.60;2.40;;;20.90;55.60;;;21.00;47.73;97660.50;5134200;27;20453;-78
2023/07/23 01:14:58;;;;;;;3.27;2.97;;;21.00;55.70;;;21.13;46.69;97664.47;5137180;27;20504;-79
2023/07/23 01:17:26;;;;;;;2.90;2.60;;;21.00;55.30;;;21.01;47.42;97659.38;5153457;27;20447;-80
2023/07/23 01:20:04;;;;;;;2.47;2.27;;;21.00;55.70;;;20.87;47.41;97634.59;5135870;27;21267;-78
2023/07/23 01:22:33;;;;;;;4.90;3.20;;;21.00;55.40;;;20.89;47.33;97658.97;5128570;27;20558;-80
2023/07/23 01:25:01;;;;;;;3.07;2.87;;;21.00;55.10;;;20.76;47.17;97650.28;5124666;27;20488;-79
2023/07/23 01:27:28;;;;;;;4.53;3.50;;;20.90;55.10;;;20.89;46.57;97637.00;5111860;27;21111;-78
2023/07/23 01:29:55;;;;;;;4.53;2.60;;;20.90;55.00;;;20.93;46.93;97608.69;5144541;27;20460;-76
2023/07/23 01:32:23;;;;;;;3.50;3.20;;;21.00;55.20;;;21.19;46.13;97646.81;5138843;27;20459;-78
2023/07/23 01:34:51;;;;;;;4.03;2.60;;;21.10;55.00;;;21.14;46.31;97644.13;5094998;28;20839;-78
2023/07/23 01:37:19;;;;;;;3.33;2.97;;;21.10;54.60;;;20.74;46.01;97591.34;5138975;27;20458;-78
2023/07/23 01:39:50;;;;;;;3.07;2.87;;;21.10;54.50;;;21.14;46.09;97633.13;5116581;28;20515;-76
2023/07/23 01:42:18;;;;;;;3.20;2.90;;;21.10;54.40;;;21.27;45.95;97636.28;5098628;27;20872;-78
2023/07/23 01:44:45;;;;;;;2.43;2.23;;;21.20;54.60;;;21.05;46.53;97640.41;5108185;28;20472;-80
2023/07/23 01:47:12;;;;;;;3.27;2.97;;;21.00;54.40;;;20.70;46.01;97582.03;5133933;27;20464;-78
2023/07/23 01:49:39;;;;;;;3.63;2.50;;;21.00;54.50;;;21.04;46.34;97638.78;5116918;27;20445;-79
2023/07/23 01:52:08;;;;;;;3.40;3.07;;;21.10;54.40;;;21.23;46.00;97639.63;5154138;27;20435;-80
2023/07/23 01:54:35;;;;;;;3.63;3.03;;;21.20;54.50;;;21.10;46.64;97634.84;5125261;28;20453;-82
2023/07/23 01:57:04;;;;;;;2.53;2.33;;;21.10;54.60;;;21.28;45.72;97632.41;5116889;27;20455;-81
2023/07/23 01:59:31;;;;;;;2.77;2.57;;;21.20;54.50;;;20.97;45.92;97621.81;5139391;27;20812;-80
2023/07/23 02:01:59;;;;;;;2.87;2.53;;;21.10;54.10;;;21.13;46.01;97620.50;5128915;27;20631;-76
2023/07/23 02:04:26;;;;;;;3.20;2.83;;;21.10;54.30;;;21.03;46.94;97621.47;5105305;27;20442;-81
2023/07/23 02:06:53;;;;;;;3.20;2.70;;;21.10;54.80;;;20.98;46.73;97624.28;5125996;27;20458;-79
2023/07/23 02:09:21;;;;;;;2.83;2.53;;;21.00;54.80;;;20.99;47.11;97619.59;5131593;27;20521;-78
2023/07/23 02:11:48;;;;;;;2.93;2.30;;;21.00;54.80;;;20.93;46.77;97610.63;5143655;27;20506;-82
2023/07/23 02:14:17;;;;;;;3.70;2.47;;;20.90;54.70;;;20.74;46.77;97618.78;5123826;27;20442;-82
2023/07/23 02:16:44;;;;;;;3.27;2.97;;;20.80;54.40;;;20.77;46.45;97619.00;5134708;27;20499;-81
2023/07/23 02:19:13;;;;;;;3.10;2.80;;;20.70;54.50;;;20.70;46.32;97617.69;5114633;27;20486;-82
2023/07/23 02:21:40;;;;;;;4.27;2.70;;;20.60;54.40;;;20.74;46.42;97618.78;5120066;27;21002;-83
2023/07/23 02:24:08;;;;;;;3.07;2.77;;;20.70;54.50;;;20.65;46.57;97622.16;5114622;27;21159;-81
2023/07/23 02:26:35;;;;;;;3.07;2.83;;;20.60;54.30;;;20.67;47.03;97621.88;5131576;27;20452;-81
2023/07/23 02:29:03;;;;;;;2.83;2.63;;;20.60;54.50;;;20.80;46.75;97617.59;5126831;27;20467;-84
2023/07/23 02:31:31;;;;;;;4.07;2.97;;;20.70;54.60;;;20.62;46.31;97619.16;5123757;27;21517;-82
2023/07/23 02:33:59;;;;;;;5.43;2.43;;;20.60;54.20;;;20.73;47.09;97611.66;5143392;27;20477;-78
2023/07/23 02:36:26;;;;;;;2.90;2.70;;;20.60;54.70;;;20.66;46.58;97621.03;5118823;27;20486;-75
2023/07/23 02:38:54;;;;;;;3.00;2.53;;;20.60;54.50;;;20.54;47.44;97626.09;5121683;27;20462;-76
2023/07/23 02:41:21;;;;;;;3.07;2.80;;;20.50;54.60;;;20.36;47.33;97584.59;5133229;27;20450;-85
2023/07/23 02:43:48;;;;;;;3.30;3.00;;;20.50;54.60;;;20.66;46.37;97634.75;5149544;27;20451;-87
2023/07/23 02:46:15;;;;;;;3.60;2.90;;;20.70;54.30;;;20.60;46.61;97622.22;5118970;27;20449;-75
2023/07/23 02:48:43;;;;;;;3.63;2.43;;;20.60;54.40;;;20.24;47.10;97556.72;5150112;27;20462;-76
2023/07/23 02:51:11;;;;;;;3.13;2.67;;;20.60;54.50;;;20.14;46.95;97551.38;5142605;27;20556;-78
2023/07/23 02:53:39;;;;;;;5.00;3.00;;;20.40;54.60;;;20.58;46.89;97621.69;5140054;27;20454;-79
2023/07/23 02:56:07;;;;;;;2.60;2.40;;;20.50;54.70;;;20.59;46.87;97612.34;5148942;27;20434;-76
2023/07/23 02:58:34;;;;;;;4.07;3.00;;;20.50;54.50;;;20.31;47.00;97567.38;5151343;27;20545;-76
2023/07/23 03:01:01;;;;;;;4.23;2.83;;;20.70;54.60;;;20.57;46.73;97628.28;5152328;27;20456;-76
2023/07/23 03:03:28;;;;;;;8.23;3.40;;;20.60;54.30;;;20.47;47.11;97634.72;5136789;27;20476;-76
2023/07/23 03:05:57;;;;;;;2.97;2.70;;;20.40;54.50;;;20.56;47.39;97626.66;5132560;27;21195;-75
2023/07/23 03:08:24;;;;;;;3.47;2.80;;;20.40;54.80;;;20.45;47.21;97625.91;5140530;27;20514;-79
2023/07/23 03:10:52;;;;;;;4.13;3.10;;;20.40;54.80;;;20.32;47.80;97623.84;5112610;27;21011;-83
2023/07/23 03:13:20;;;;;;;2.63;2.43;;;20.20;54.80;;;20.35;47.46;97629.59;5124662;27;20777;-79
2023/07/23 03:15:47;;;;;;;3.30;2.90;;;20.20;54.80;;;20.29;47.48;97635.41;5132116;27;20467;-84
2023/07/23 03:18:14;;;;;;;3.13;2.70;;;20.20;54.70;;;20.29;47.47;97619.78;5131598;27;20461;-84
2023/07/23 03:20:42;;;;;;;3.60;2.87;;;20.20;54.80;;;20.31;47.58;97622.22;5138132;27;20730;-76
2023/07/23 03:23:10;;;;;;;3.50;3.00;;;20.20;55.30;;;20.31;47.03;97617.56;5154812;27;20480;-75
2023/07/23 03:25:38;;;;;;;3.17;2.87;;;20.30;54.60;;;20.19;47.37;97606.16;5166149;27;20449;-74
2023/07/23 03:28:05;;;;;;;3.00;2.70;;;20.20;54.80;;;20.27;47.71;97622.00;5146877;27;20580;-74
2023/07/23 03:30:32;;;;;;;3.17;2.87;;;20.20;54.90;;;20.13;47.95;97619.09;5145605;27;20448;-79
2023/07/23 03:33:00;;;;;;;3.83;3.03;;;20.10;55.00;;;20.22;47.95;97627.50;5137553;27;20493;-78
2023/07/23 03:35:27;;;;;;;2.73;2.53;;;20.10;54.90;;;20.03;48.08;97600.81;5138752;27;20712;-83
2023/07/23 03:37:54;;;;;;;4.67;3.23;;;20.10;54.90;;;20.24;47.71;97623.38;5142914;27;20490;-79
2023/07/23 03:40:23;;;;;;;3.70;2.97;;;20.20;54.90;;;20.26;47.69;97620.38;5140628;27;20474;-82
2023/07/23 03:42:50;;;;;;;3.73;2.97;;;20.20;54.80;;;20.21;47.65;97617.66;5129671;27;20502;-81
2023/07/23 03:45:17;;;;;;;3.60;2.70;;;20.20;54.80;;;19.96;47.21;97568.25;5120453;27;20445;-76
2023/07/23 03:47:45;;;;;;;3.13;2.70;;;20.20;54.70;;;20.13;47.59;97616.34;5120546;27;20950;-83
2023/07/23 03:50:12;;;;;;;4.97;2.60;;;20.10;54.90;;;20.00;47.88;97617.00;5153641;27;20454;-83
2023/07/23 03:52:39;;;;;;;3.00;2.63;;;20.00;54.80;;;19.99;48.07;97598.94;5155218;27;20463;-83
2023/07/23 03:55:07;;;;;;;3.27;2.97;;;19.90;55.00;;;20.17;47.74;97616.59;5139203;27;20457;-80
2023/07/23 03:57:35;;;;;;;3.67;3.07;;;20.10;55.00;;;20.18;47.76;97612.75;5148990;27;20453;-74
2023/07/23 04:00:06;;;;;;;4.40;3.00;;;20.10;54.90;;;20.14;47.77;97608.97;5146377;27;20461;-80
2023/07/23 04:02:33;;;;;;;2.87;2.60;;;20.10;55.00;;;20.18;47.62;97618.25;5123109;27;20570;-84
2023/07/23 04:05:01;;;;;;;9.27;3.07;;;20.10;54.90;;;20.29;47.41;97613.47;5142186;27;20487;-79
2023/07/23 04:07:28;;;;;;;3.13;2.70;;;20.20;54.80;;;20.33;47.45;97614.53;5157318;27;20463;-79
2023/07/23 04:09:55;;;;;;;3.27;2.97;;;20.20;54.80;;;20.30;47.31;97615.94;5150618;27;20441;-82
2023/07/23 04:12:23;;;;;;;2.80;2.20;;;20.20;54.80;;;20.27;47.31;97622.00;5140168;27;20971;-83
2023/07/23 04:14:51;;;;;;;3.20;2.90;;;20.20;54.70;;;20.20;47.61;97621.50;5121705;27;20514;-85
2023/07/23 04:17:18;;;;;;;3.83;2.90;;;20.20;54.70;;;20.24;47.56;97622.56;5116681;27;20450;-80
2023/07/23 04:19:46;;;;;;;4.03;2.97;;;20.20;54.80;;;20.54;46.86;97617.88;5131171;27;20484;-84
2023/07/23 04:22:13;;;;;;;2.80;2.60;;;20.30;54.60;;;21.13;45.57;97615.03;5133579;27;20499;-83
2023/07/23 04:24:40;;;;;;;5.40;3.17;;;20.90;54.20;;;21.79;44.06;97615.22;5148422;27;20448;-81
2023/07/23 04:27:07;;;;;;;3.90;3.13;;;21.60;53.80;;;22.16;42.94;97612.69;5143230;27;20460;-80
2023/07/23 04:29:34;;;;;;;3.23;2.93;;;22.20;53.20;;;21.96;43.86;97619.34;5146468;27;20450;-80
2023/07/23 04:32:03;;;;;;;4.07;3.70;;;22.30;52.80;;;22.29;43.07;97615.75;5136249;27;20453;-82
2023/07/23 04:34:30;;;;;;;3.40;3.03;;;22.50;52.80;;;23.04;41.35;97626.78;5135586;27;20453;-80
2023/07/23 04:36:57;;;;;;;3.30;3.00;;;23.10;52.50;;;23.19;40.88;97618.19;5125610;27;20456;-82
2023/07/23 04:39:25;;;;;;;4.77;3.50;;;23.40;51.90;;;23.69;39.84;97615.75;5124694;27;20464;-81
2023/07/23 04:41:52;;;;;;;2.90;2.60;;;23.90;51.70;;;24.01;39.34;97617.44;5132035;27;20456;-81
2023/07/23 04:44:19;;;;;;;2.63;2.43;;;24.10;51.50;;;24.47;38.59;97620.19;5137281;27;20449;-79
2023/07/23 04:46:46;;;;;;;4.10;2.90;;;24.60;51.00;;;24.48;37.88;97619.03;5127150;27;20892;-84
2023/07/23 04:49:15;;;;;;;3.40;2.70;;;24.80;50.90;;;23.34;40.20;97616.25;5133123;27;20536;-77
2023/07/23 04:51:42;;;;;;;3.63;3.03;;;24.20;50.70;;;23.26;40.83;97625.22;5134696;27;22243;-81
2023/07/23 04:54:09;;;;;;;4.67;3.40;;;23.80;51.00;;;23.44;40.33;97621.56;5148351;27;20534;-78
2023/07/23 04:56:36;;;;;;;4.73;3.47;;;23.90;51.00;;;22.55;41.93;97624.44;5155205;27;20450;-80
2023/07/23 04:59:04;;;;;;;3.37;3.07;;;23.10;51.30;;;23.30;40.08;97582.19;5133012;27;20487;-80
2023/07/23 05:01:32;;;;;;;4.13;3.07;;;23.40;51.50;;;23.00;41.24;97623.81;5125543;27;20471;-86
2023/07/23 05:04:00;;;;;;;3.60;2.90;;;23.10;51.40;;;22.71;41.79;97626.88;5139983;27;20946;-80
2023/07/23 05:06:28;;;;;;;4.50;2.93;;;22.80;51.70;;;22.23;42.38;97617.81;5121682;27;20441;-78
2023/07/23 05:08:56;;;;;;;3.37;2.70;;;22.50;51.90;;;21.99;43.32;97618.75;5132380;27;20449;-83
2023/07/23 05:11:23;;;;;;;5.07;3.30;;;22.10;52.10;;;22.08;43.18;97630.72;5140328;27;20735;-84
2023/07/23 05:13:50;;;;;;;4.73;3.10;;;22.10;52.30;;;22.07;43.30;97631.84;5141160;27;20539;-82
2023/07/23 05:16:17;;;;;;;4.00;2.77;;;22.00;52.30;;;21.90;43.50;97629.63;5111065;27;21000;-79
2023/07/23 05:18:44;;;;;;;3.33;2.70;;;22.00;52.50;;;21.66;44.06;97629.72;5134267;27;20447;-83
2023/07/23 05:21:12;;;;;;;2.93;2.67;;;21.80;52.60;;;22.10;43.38;97626.84;5145903;27;20452;-85
2023/07/23 05:23:41;;;;;;;4.57;3.57;;;21.90;52.70;;;22.45;42.54;97635.59;5114816;28;20469;-84
2023/07/23 05:26:09;;;;;;;3.40;3.10;;;22.30;52.40;;;23.07;41.46;97623.41;5134789;27;20522;-87
2023/07/23 05:28:38;;;;;;;3.20;2.90;;;23.00;52.00;;;23.30;40.64;97623.53;5145573;27;20457;-83
2023/07/23 05:31:05;;;;;;;4.13;3.03;;;23.60;51.50;;;24.11;39.46;97627.47;5114328;27;20434;-82
2023/07/23 05:33:32;;;;;;;2.83;2.60;;;24.00;51.50;;;25.17;37.54;97639.00;5145461;27;20452;-83
2023/07/23 05:35:59;;;;;;;3.43;2.60;;;25.10;50.90;;;25.08;37.24;97636.22;5160415;27;20458;-83
2023/07/23 05:38:27;;;;;;;3.90;3.50;;;25.60;50.00;;;24.90;37.90;97636.16;5153461;27;20472;-82
2023/07/23 05:40:58;;;;;;;3.47;3.17;;;25.40;50.10;;;24.84;37.58;97644.91;5147086;27;20467;-76
2023/07/23 05:43:26;;;;;;;3.30;2.83;;;25.20;50.00;;;24.70;38.19;97645.00;5135941;27;20466;-85
2023/07/23 05:45:53;;;;;;;3.60;2.87;;;24.70;50.50;;;23.96;39.18;97636.06;5137123;27;20450;-78
2023/07/23 05:48:21;;;;;;;3.73;3.43;;;24.40;50.50;;;23.36;40.25;97636.03;5118202;27;20982;-80
2023/07/23 05:50:48;;;;;;;4.10;3.20;;;24.10;50.30;;;23.60;39.44;97586.16;5133258;27;20515;-82
2023/07/23 05:53:16;;;;;;;3.00;2.70;;;24.10;50.80;;;24.05;39.20;97637.81;5152071;27;20443;-79
2023/07/23 05:55:43;;;;;;;4.40;2.83;;;24.50;50.50;;;24.00;39.71;97637.09;5137217;27;20481;-75
2023/07/23 05:58:12;;;;;;;3.43;2.97;;;24.40;50.60;;;24.07;39.34;97631.16;5135457;27;20475;-76
2023/07/23 06:00:39;;;;;;;3.33;2.50;;;24.50;50.40;;;25.03;37.21;97633.59;5134967;27;20443;-75
2023/07/23 06:03:07;;;;;;;3.10;2.80;;;25.20;50.20;;;25.81;35.95;97634.06;5156661;27;20539;-79
2023/07/23 06:05:34;;;;;;;3.40;3.10;;;26.00;49.70;;;24.79;38.18;97640.31;5156422;27;20449;-79
2023/07/23 06:08:01;;;;;;;3.63;2.77;;;25.30;49.80;;;24.27;39.04;97647.19;5152445;27;20450;-75
2023/07/23 06:10:28;;;;;;;2.70;2.50;;;24.60;50.20;;;23.28;40.72;97645.06;5122910;27;20966;-76
2023/07/23 06:12:55;;;;;;;2.83;2.63;;;23.80;50.60;;;23.62;40.02;97643.75;5117686;27;20447;-77
2023/07/23 06:15:24;;;;;;;3.07;2.70;;;23.60;50.90;;;23.40;40.62;97648.06;5145361;27;20749;-77
2023/07/23 06:17:51;;;;;;;3.30;2.40;;;23.50;51.10;;;23.56;40.57;97639.47;5155255;27;20832;-81
2023/07/23 06:20:18;;;;;;;3.37;2.70;;;23.40;51.20;;;23.62;40.45;97638.25;5137617;27;20467;-82
2023/07/23 06:22:46;;;;;;;4.03;3.30;;;23.50;51.10;;;23.11;41.08;97612.59;5147496;27;20567;-81
2023/07/23 06:25:13;;;;;;;3.63;3.17;;;23.50;51.20;;;23.10;41.43;97636.56;5150708;27;20465;-78
2023/07/23 06:27:41;;;;;;;3.13;2.83;;;23.20;51.40;;;23.30;41.20;97643.59;5159499;27;20462;-82
2023/07/23 06:30:10;;;;;;;3.13;2.83;;;23.20;51.60;;;23.26;41.54;97641.75;5133888;27;20549;-79
2023/07/23 06:32:38;;;;;;;3.20;2.43;;;23.20;51.70;;;23.81;40.45;97642.78;5140227;27;20473;-76
2023/07/23 06:35:10;;;;;;;3.47;3.00;;;23.50;51.50;;;23.81;40.19;97635.31;5149604;27;20471;-78
2023/07/23 06:37:38;;;;;;;4.40;3.20;;;23.70;51.50;;;23.94;40.48;97638.31;5138610;27;20496;-77
2023/07/23 06:40:08;;;;;;;2.40;2.20;;;23.80;51.40;;;23.56;41.27;97633.94;5145268;27;20529;-77
2023/07/23 06:42:35;;;;;;;2.77;2.57;;;23.60;51.60;;;23.56;41.20;97642.22;5150465;27;20465;-80
2023/07/23 06:45:02;;;;;;;2.60;2.40;;;23.50;51.90;;;23.68;40.30;97583.78;5126302;27;20455;-78
2023/07/23 06:47:30;;;;;;;3.40;3.03;;;23.70;51.80;;;23.84;40.52;97636.63;5129311;27;20837;-77
2023/07/23 06:49:58;;;;;;;2.97;2.67;;;23.80;51.60;;;24.03;40.49;97631.75;5115340;27;20436;-79
2023/07/23 06:52:25;;;;;;;3.00;2.60;;;23.90;51.70;;;23.87;40.80;97633.25;5117580;27;20453;-82
2023/07/23 06:54:53;;;;;;;3.10;2.80;;;23.90;51.60;;;24.43;39.95;97633.00;5132065;27;20456;-80
2023/07/23 06:57:20;;;;;;;3.40;2.80;;;24.10;51.90;;;23.63;41.09;97637.91;5114899;27;20456;-78
2023/07/23 06:59:48;;;;;;;2.50;2.17;;;23.80;51.50;;;23.44;41.37;97632.56;5149877;27;20470;-83
2023/07/23 07:02:16;;;;;;;3.07;2.47;;;23.60;51.60;;;23.68;41.02;97639.75;5154467;27;20451;-78
2023/07/23 07:04:43;;;;;;;3.10;2.80;;;23.70;51.60;;;23.63;41.10;97615.06;5153526;27;21299;-83
2023/07/23 07:07:11;;;;;;;3.30;2.90;;;23.70;51.70;;;23.90;41.14;97638.16;5112507;27;20442;-85
2023/07/23 07:09:39;;;;;;;3.20;2.27;;;23.80;52.00;;;24.54;39.35;97625.25;5144274;27;20456;-86
2023/07/23 07:12:08;;;;;;;3.60;2.40;;;24.30;51.70;;;24.93;38.78;97637.47;5133139;27;20448;-81
2023/07/23 07:14:35;;;;;;;3.73;2.40;;;24.80;51.40;;;24.76;38.94;97624.41;5152451;27;20449;-82
2023/07/23 07:17:02;;;;;;;3.20;2.90;;;24.90;51.00;;;25.44;37.83;97626.03;5113307;27;20472;-79
2023/07/23 07:19:29;;;;;;;2.93;2.33;;;25.10;51.10;;;26.01;36.97;97616.81;5140495;27;20456;-81
2023/07/23 07:21:56;;;;;;;3.70;2.80;;;25.60;50.90;;;26.01;36.68;97622.34;5134022;27;20449;-83
2023/07/23 07:24:27;;;;;;;3.30;2.53;;;25.80;50.50;;;25.98;36.60;97614.69;5131809;27;20828;-78
2023/07/23 07:26:55;;;;;;;2.93;2.63;;;25.90;50.30;;;26.09;36.43;97617.13;5130715;27;20496;-83
2023/07/23 07:29:22;;;;;;;2.80;2.23;;;26.00;49.90;;;25.54;36.15;97624.94;5124331;27;20867;-88
2023/07/23 07:31:50;;;;;;;2.07;1.87;;;25.60;49.20;;;25.32;36.74;97629.44;5121214;27;20465;-82
2023/07/23 07:34:17;;;;;;;5.00;2.87;;;25.40;49.40;;;25.20;36.79;97634.78;5114812;27;21259;-80
2023/07/23 07:36:45;;;;;;;2.10;1.90;;;25.20;49.30;;;25.16;36.68;97624.38;5128806;27;20452;-83
2023/07/23 07:39:12;;;;;;;2.57;2.17;;;25.20;49.80;;;25.16;35.06;97616.09;5120501;27;20844;-78
2023/07/23 07:41:41;;;;;;;3.47;1.97;;;25.20;48.60;;;24.96;35.29;97622.22;5127590;27;20970;-85
2023/07/23 07:44:08;;;;;;;3.20;2.90;;;25.00;48.00;;;24.99;35.49;97627.09;5131962;27;20469;-81
2023/07/23 07:46:35;;;;;;;2.30;2.10;;;25.00;48.70;;;24.75;35.86;97628.25;5136680;27;20462;-83
2023/07/23 07:49:04;;;;;;;3.60;2.70;;;24.80;48.20;;;25.08;35.61;97633.44;5130202;27;20471;-81
2023/07/23 07:51:31;;;;;;;2.90;1.90;;;24.90;48.50;;;25.16;36.18;97618.03;5129525;27;20510;-80
2023/07/23 07:53:59;;;;;;;2.80;2.43;;;25.00;48.70;;;25.27;34.59;97618.56;5104697;27;20570;-74
2023/07/23 07:56:27;;;;;;;2.20;2.00;;;25.10;48.00;;;25.03;35.45;97617.03;5139480;27;20446;-72
2023/07/23 07:58:56;;;;;;;2.93;2.00;;;25.10;48.00;;;25.04;35.43;97613.94;5126740;27;20483;-77
2023/07/23 08:01:24;;;;;;;2.70;2.27;;;25.10;48.00;;;24.96;35.40;97605.63;5114392;27;20491;-77
2023/07/23 08:03:52;;;;;;;2.67;2.47;;;25.10;47.90;;;24.94;35.23;97618.94;5113940;27;20495;-76
2023/07/23 08:06:19;;;;;;;3.13;2.77;;;25.00;47.80;;;25.08;35.24;97616.88;5131207;27;21235;-77
2023/07/23 08:08:50;;;;;;;2.30;2.10;;;25.00;48.00;;;25.45;35.07;97609.13;5123854;27;20607;-77
2023/07/23 08:11:18;;;;;;;2.30;2.10;;;25.20;48.10;;;25.38;34.69;97606.03;5135917;27;20471;-73
2023/07/23 08:13:46;;;;;;;3.80;2.37;;;25.30;47.60;;;25.10;34.60;97609.09;5123605;27;21323;-75
2023/07/23 08:16:18;;;;;;;2.83;2.23;;;25.20;47.50;;;25.17;34.70;97614.94;5096459;27;20510;-76
2023/07/23 08:18:46;;;;;;;2.47;2.23;;;25.10;47.50;;;24.86;34.67;97549.53;5115411;27;20467;-71
2023/07/23 08:21:14;;;;;;;2.37;2.17;;;25.20;47.50;;;25.14;34.86;97610.06;5096497;27;20529;-72
2023/07/23 08:23:43;;;;;;;3.30;2.30;;;25.10;47.70;;;25.30;35.14;97598.56;5124344;27;20508;-76
2023/07/23 08:26:14;;;;;;;2.67;2.37;;;25.20;47.80;;;25.43;34.93;97603.13;5121958;27;20466;-74
2023/07/23 08:28:50;;;;;;;4.93;2.40;;;25.30;47.80;;;25.43;35.08;97600.34;5114313;27;20448;-77
2023/07/23 08:31:20;;;;;;;2.27;1.90;;;25.40;47.80;;;25.58;34.97;97592.75;5102606;27;20458;-77
2023/07/23 08:33:49;;;;;;;2.17;1.97;;;25.40;47.90;;;25.55;34.83;97560.19;5103864;27;20446;-76
2023/07/23 08:36:17;;;;;;;2.30;2.10;;;25.60;48.00;;;25.98;34.81;97587.00;5115210;27;20458;-77
2023/07/23 08:38:45;;;;;;;2.50;2.30;;;25.80;48.10;;;26.17;34.60;97597.75;5121298;27;20492;-76
2023/07/23 08:41:26;;;;;;;2.37;2.03;;;26.00;47.80;;;26.41;33.61;97603.88;5119408;27;20457;-72
2023/07/23 08:44:31;;;;;;;3.40;2.00;;;26.20;47.60;;;26.54;33.62;97594.56;5113390;27;20507;-76
2023/07/23 08:47:11;;;;;;;2.33;2.13;;;26.40;47.50;;;26.36;33.48;97595.78;5119684;27;20448;-73
2023/07/23 08:49:41;;;;;;;3.20;2.20;;;26.30;47.20;;;26.17;33.58;97591.41;5113209;27;20448;-76
2023/07/23 08:52:11;;;;;;;2.23;2.03;;;26.20;47.10;;;25.91;34.67;97589.47;5096413;27;20460;-74
2023/07/23 08:54:40;;;;;;;2.03;1.93;;;25.90;47.50;;;25.85;34.08;97591.59;5097740;27;20447;-75
2023/07/23 08:57:09;;;;;;;2.60;2.17;;;25.80;47.40;;;25.72;34.69;97587.88;5099474;27;21130;-79
2023/07/23 08:59:37;;;;;;;2.30;2.00;;;25.60;47.60;;;25.86;34.49;97586.88;5110581;27;20961;-79
2023/07/23 09:02:11;;;;;;;2.30;2.10;;;25.70;47.70;;;25.76;34.56;97592.75;5115041;27;20448;-74
2023/07/23 09:04:38;;;;;;;2.30;2.07;;;25.70;47.60;;;25.92;34.49;97581.97;5120325;27;20475;-79
2023/07/23 09:07:10;;;;;;;2.30;2.10;;;25.80;47.60;;;26.13;34.55;97591.22;5096825;27;20462;-77
2023/07/23 09:09:38;;;;;;;2.40;2.20;;;25.90;48.20;;;26.02;34.11;97576.94;5093596;27;20452;-79
2023/07/23 09:12:06;;;;;;;2.53;2.30;;;26.00;47.50;;;26.12;34.26;97577.72;5101819;27;21181;-76
2023/07/23 09:14:42;;;;;;;2.10;1.90;;;25.90;47.60;;;26.11;34.70;97576.09;5104502;27;20482;-77
2023/07/23 09:17:19;;;;;;;2.27;2.07;;;26.00;47.90;;;26.19;34.32;97577.25;5092244;27;20624;-75
2023/07/23 09:19:47;;;;;;;2.70;1.73;;;26.10;47.60;;;26.05;33.78;97578.22;5117828;27;20459;-77
2023/07/23 09:22:17;;;;;;;2.10;2.00;;;26.00;47.30;;;26.39;33.97;97573.78;5105069;27;20888;-73
2023/07/23 09:24:44;;;;;;;2.83;2.27;;;26.10;47.60;;;26.33;33.83;97577.06;5129575;27;20544;-77
2023/07/23 09:27:12;;;;;;;3.57;2.00;;;26.30;47.20;;;26.38;33.91;97574.09;5121843;27;20451;-73
2023/07/23 09:29:42;;;;;;;2.43;2.20;;;26.30;47.30;;;26.51;33.84;97584.16;5135560;27;20870;-75
2023/07/23 09:32:23;;;;;;;2.20;1.80;;;26.40;47.50;;;26.78;33.51;97559.09;5110797;27;20536;-75
2023/07/23 09:34:51;;;;;;;2.30;2.00;;;26.60;47.40;;;27.11;32.93;97575.88;5107404;27;20460;-77
2023/07/23 09:37:18;;;;;;;2.77;2.03;;;26.80;47.30;;;26.91;33.34;97563.63;5111161;27;20531;-77
2023/07/23 09:39:45;;;;;;;2.90;2.27;;;26.90;47.20;;;26.92;33.40;97581.03;5120476;27;20545;-72
2023/07/23 09:42:13;;;;;;;2.37;2.13;;;26.80;47.20;;;26.89;33.48;97581.72;5114320;27;20878;-77
2023/07/23 09:44:41;;;;;;;2.73;1.87;;;26.80;47.10;;;27.20;32.91;97577.78;5120918;27;20472;-75
2023/07/23 09:47:08;;;;;;;2.23;2.03;;;27.00;47.20;;;26.86;33.58;97584.00;5138481;27;20508;-78
2023/07/23 09:49:38;;;;;;;2.50;2.27;;;26.80;47.30;;;26.90;33.40;97588.88;5101251;28;20451;-73
2023/07/23 09:52:10;;;;;;;1.83;1.73;;;26.80;47.40;;;26.85;33.38;97574.03;5116929;27;20471;-75
2023/07/23 09:54:37;;;;;;;2.40;2.20;;;26.80;47.10;;;26.80;33.66;97574.25;5119347;27;20452;-79
2023/07/23 09:57:06;;;;;;;2.40;2.20;;;26.70;47.40;;;26.85;33.62;97565.72;5124950;27;20444;-81
2023/07/23 09:59:34;;;;;;;2.00;1.80;;;26.70;47.30;;;26.93;33.46;97566.06;5103779;27;20470;-77
2023/07/23 10:02:02;;;;;;;2.20;2.00;;;26.80;47.40;;;26.98;33.47;97524.28;5111179;27;20478;-77
2023/07/23 10:04:32;;;;;;;4.60;2.13;;;27.00;47.40;;;27.31;33.39;97569.91;5104691;27;20468;-78
2023/07/23 10:07:01;;;;;;;2.63;1.93;;;27.10;47.40;;;27.19;33.13;97567.84;5101840;27;20453;-82
2023/07/23 10:09:29;;;;;;;1.90;1.80;;;27.10;47.20;;;27.33;33.18;97562.84;5120498;27;20454;-76
2023/07/23 10:11:57;;;;;;;2.50;2.20;;;27.20;47.10;;;27.21;33.35;97560.00;5119838;27;20467;-80
2023/07/23 10:14:24;;;;;;;2.20;2.00;;;27.20;47.20;;;27.29;33.12;97556.38;5106703;27;20457;-76
2023/07/23 10:16:54;;;;;;;1.80;1.70;;;27.20;47.20;;;27.31;32.95;97545.75;5127682;27;20952;-80
2023/07/23 10:19:22;;;;;;;2.63;2.00;;;27.20;47.10;;;27.44;32.92;97557.69;5107893;27;20783;-80
2023/07/23 10:21:50;;;;;;;2.30;2.07;;;27.30;47.00;;;27.35;32.38;97557.78;5117905;27;20449;-80
2023/07/23 10:24:19;;;;;;;2.30;2.10;;;27.30;46.50;;;27.45;32.58;97551.03;5127903;27;20470;-81